sensor_id;sensor_type;location;lat;lon;timestamp;P1;durP1;ratioP1;P2;durP2;ratioP2
24439;SDS011;12618;54.386;18.394;2022-08-26T00:02:24;47.48;;;22.40;;
24439;SDS011;12618;54.386;18.394;2022-08-26T00:04:55;50.23;;;22.02;;
24439;SDS011;12618;54.386;18.394;2022-08-26T00:07:25;58.17;;;23.02;;
24439;SDS011;12618;54.386;18.394;2022-08-26T00:09:56;60.50;;;23.67;;
24439;SDS011;12618;54.386;18.394;2022-08-26T00:12:27;41.48;;;21.93;;
24439;SDS011;12618;54.386;18.394;2022-08-26T00:14:58;68.87;;;23.15;;
24439;SDS011;12618;54.386;18.394;2022-08-26T00:17:28;69.03;;;23.40;;
24439;SDS011;12618;54.386;18.394;2022-08-26T00:19:59;34.85;;;20.20;;
24439;SDS011;12618;54.386;18.394;2022-08-26T00:22:29;60.73;;;21.70;;
24439;SDS011;12618;54.386;18.394;2022-08-26T00:25:00;49.48;;;22.20;;
24439;SDS011;12618;54.386;18.394;2022-08-26T00:27:30;39.33;;;20.95;;
24439;SDS011;12618;54.386;18.394;2022-08-26T00:30:04;58.08;;;22.58;;
24439;SDS011;12618;54.386;18.394;2022-08-26T00:32:35;41.23;;;21.07;;
24439;SDS011;12618;54.386;18.394;2022-08-26T00:35:06;45.40;;;21.05;;
24439;SDS011;12618;54.386;18.394;2022-08-26T00:37:38;52.67;;;20.77;;
24439;SDS011;12618;54.386;18.394;2022-08-26T00:40:12;37.73;;;21.57;;
24439;SDS011;12618;54.386;18.394;2022-08-26T00:42:41;41.33;;;20.88;;
24439;SDS011;12618;54.386;18.394;2022-08-26T00:45:12;31.48;;;19.95;;
24439;SDS011;12618;54.386;18.394;2022-08-26T00:47:45;55.63;;;19.52;;
24439;SDS011;12618;54.386;18.394;2022-08-26T00:50:18;37.23;;;18.67;;
24439;SDS011;12618;54.386;18.394;2022-08-26T00:52:48;32.83;;;18.42;;
24439;SDS011;12618;54.386;18.394;2022-08-26T00:55:28;47.20;;;19.80;;
24439;SDS011;12618;54.386;18.394;2022-08-26T00:57:58;48.92;;;19.10;;
24439;SDS011;12618;54.386;18.394;2022-08-26T01:00:29;35.63;;;18.75;;
24439;SDS011;12618;54.386;18.394;2022-08-26T01:03:01;40.52;;;18.35;;
24439;SDS011;12618;54.386;18.394;2022-08-26T01:05:31;63.02;;;18.90;;
24439;SDS011;12618;54.386;18.394;2022-08-26T01:08:02;38.20;;;17.77;;
24439;SDS011;12618;54.386;18.394;2022-08-26T01:10:33;36.42;;;18.62;;
24439;SDS011;12618;54.386;18.394;2022-08-26T01:13:06;53.85;;;18.62;;
24439;SDS011;12618;54.386;18.394;2022-08-26T01:15:42;47.48;;;16.65;;
24439;SDS011;12618;54.386;18.394;2022-08-26T01:18:13;41.85;;;18.25;;
24439;SDS011;12618;54.386;18.394;2022-08-26T01:23:33;30.68;;;17.15;;
24439;SDS011;12618;54.386;18.394;2022-08-26T01:26:05;30.45;;;17.62;;
24439;SDS011;12618;54.386;18.394;2022-08-26T01:28:36;43.52;;;16.80;;
24439;SDS011;12618;54.386;18.394;2022-08-26T01:31:08;61.15;;;17.92;;
24439;SDS011;12618;54.386;18.394;2022-08-26T01:33:42;28.23;;;17.35;;
24439;SDS011;12618;54.386;18.394;2022-08-26T01:36:11;48.87;;;16.73;;
24439;SDS011;12618;54.386;18.394;2022-08-26T01:38:42;32.63;;;16.25;;
24439;SDS011;12618;54.386;18.394;2022-08-26T01:41:13;50.85;;;16.82;;
24439;SDS011;12618;54.386;18.394;2022-08-26T01:43:44;50.88;;;16.87;;
24439;SDS011;12618;54.386;18.394;2022-08-26T01:46:16;43.23;;;15.53;;
24439;SDS011;12618;54.386;18.394;2022-08-26T01:48:47;38.13;;;14.95;;
24439;SDS011;12618;54.386;18.394;2022-08-26T01:51:18;25.10;;;15.45;;
24439;SDS011;12618;54.386;18.394;2022-08-26T01:53:49;37.90;;;15.95;;
24439;SDS011;12618;54.386;18.394;2022-08-26T01:56:21;45.92;;;15.30;;
24439;SDS011;12618;54.386;18.394;2022-08-26T01:58:56;28.80;;;14.13;;
24439;SDS011;12618;54.386;18.394;2022-08-26T02:01:27;23.75;;;14.60;;
24439;SDS011;12618;54.386;18.394;2022-08-26T02:04:09;27.50;;;14.98;;
24439;SDS011;12618;54.386;18.394;2022-08-26T02:06:37;34.40;;;14.07;;
24439;SDS011;12618;54.386;18.394;2022-08-26T02:09:07;47.50;;;14.55;;
24439;SDS011;12618;54.386;18.394;2022-08-26T02:11:38;40.38;;;14.85;;
24439;SDS011;12618;54.386;18.394;2022-08-26T02:14:10;28.65;;;14.98;;
24439;SDS011;12618;54.386;18.394;2022-08-26T02:16:41;36.48;;;15.58;;
24439;SDS011;12618;54.386;18.394;2022-08-26T02:19:20;48.17;;;14.28;;
24439;SDS011;12618;54.386;18.394;2022-08-26T02:21:51;54.00;;;15.20;;
24439;SDS011;12618;54.386;18.394;2022-08-26T02:24:23;35.15;;;13.68;;
24439;SDS011;12618;54.386;18.394;2022-08-26T02:26:54;55.25;;;15.72;;
24439;SDS011;12618;54.386;18.394;2022-08-26T02:29:31;62.13;;;15.55;;
24439;SDS011;12618;54.386;18.394;2022-08-26T02:32:02;37.98;;;13.50;;
24439;SDS011;12618;54.386;18.394;2022-08-26T02:34:32;42.83;;;13.68;;
24439;SDS011;12618;54.386;18.394;2022-08-26T02:37:06;36.75;;;14.30;;
24439;SDS011;12618;54.386;18.394;2022-08-26T02:39:37;40.15;;;13.25;;
24439;SDS011;12618;54.386;18.394;2022-08-26T02:42:08;23.57;;;13.48;;
24439;SDS011;12618;54.386;18.394;2022-08-26T02:44:39;33.35;;;13.10;;
24439;SDS011;12618;54.386;18.394;2022-08-26T02:47:11;48.90;;;12.95;;
24439;SDS011;12618;54.386;18.394;2022-08-26T02:49:42;55.60;;;13.13;;
24439;SDS011;12618;54.386;18.394;2022-08-26T02:52:13;60.60;;;13.35;;
24439;SDS011;12618;54.386;18.394;2022-08-26T02:54:44;68.25;;;13.00;;
24439;SDS011;12618;54.386;18.394;2022-08-26T02:57:14;42.00;;;11.80;;
24439;SDS011;12618;54.386;18.394;2022-08-26T02:59:44;39.97;;;12.20;;
24439;SDS011;12618;54.386;18.394;2022-08-26T03:02:15;47.65;;;11.22;;
24439;SDS011;12618;54.386;18.394;2022-08-26T03:04:46;31.73;;;13.00;;
24439;SDS011;12618;54.386;18.394;2022-08-26T03:07:16;26.25;;;11.50;;
24439;SDS011;12618;54.386;18.394;2022-08-26T03:09:47;33.23;;;12.00;;
24439;SDS011;12618;54.386;18.394;2022-08-26T03:12:18;34.73;;;11.43;;
24439;SDS011;12618;54.386;18.394;2022-08-26T03:14:49;30.37;;;12.25;;
24439;SDS011;12618;54.386;18.394;2022-08-26T03:17:19;21.33;;;11.63;;
24439;SDS011;12618;54.386;18.394;2022-08-26T03:19:50;52.00;;;11.55;;
24439;SDS011;12618;54.386;18.394;2022-08-26T03:22:20;29.55;;;11.50;;
24439;SDS011;12618;54.386;18.394;2022-08-26T03:24:51;42.17;;;11.75;;
24439;SDS011;12618;54.386;18.394;2022-08-26T03:27:21;37.65;;;11.08;;
24439;SDS011;12618;54.386;18.394;2022-08-26T03:29:52;38.95;;;11.30;;
24439;SDS011;12618;54.386;18.394;2022-08-26T03:32:41;57.62;;;12.68;;
24439;SDS011;12618;54.386;18.394;2022-08-26T03:35:11;37.88;;;11.12;;
24439;SDS011;12618;54.386;18.394;2022-08-26T03:37:42;38.48;;;10.32;;
24439;SDS011;12618;54.386;18.394;2022-08-26T03:40:12;31.55;;;11.55;;
24439;SDS011;12618;54.386;18.394;2022-08-26T03:42:43;28.92;;;10.98;;
24439;SDS011;12618;54.386;18.394;2022-08-26T03:45:14;32.87;;;11.70;;
24439;SDS011;12618;54.386;18.394;2022-08-26T03:47:45;28.25;;;11.70;;
24439;SDS011;12618;54.386;18.394;2022-08-26T03:50:18;21.70;;;11.93;;
24439;SDS011;12618;54.386;18.394;2022-08-26T03:52:49;32.20;;;10.80;;
24439;SDS011;12618;54.386;18.394;2022-08-26T03:55:22;23.45;;;11.05;;
24439;SDS011;12618;54.386;18.394;2022-08-26T03:57:53;26.70;;;10.50;;
24439;SDS011;12618;54.386;18.394;2022-08-26T04:00:23;32.15;;;10.75;;
24439;SDS011;12618;54.386;18.394;2022-08-26T04:02:54;22.50;;;10.63;;
24439;SDS011;12618;54.386;18.394;2022-08-26T04:05:24;31.37;;;10.90;;
24439;SDS011;12618;54.386;18.394;2022-08-26T04:07:55;39.27;;;11.53;;
24439;SDS011;12618;54.386;18.394;2022-08-26T04:10:26;30.55;;;10.95;;
24439;SDS011;12618;54.386;18.394;2022-08-26T04:12:57;59.35;;;11.45;;
24439;SDS011;12618;54.386;18.394;2022-08-26T04:15:28;108.80;;;14.73;;
24439;SDS011;12618;54.386;18.394;2022-08-26T04:17:59;93.03;;;13.43;;
24439;SDS011;12618;54.386;18.394;2022-08-26T04:20:29;86.30;;;13.03;;
24439;SDS011;12618;54.386;18.394;2022-08-26T04:23:00;55.00;;;13.22;;
24439;SDS011;12618;54.386;18.394;2022-08-26T04:25:30;72.40;;;13.65;;
24439;SDS011;12618;54.386;18.394;2022-08-26T04:28:02;72.42;;;13.35;;
24439;SDS011;12618;54.386;18.394;2022-08-26T04:30:35;71.00;;;12.75;;
24439;SDS011;12618;54.386;18.394;2022-08-26T04:33:05;70.83;;;13.10;;
24439;SDS011;12618;54.386;18.394;2022-08-26T04:35:37;150.78;;;15.93;;
24439;SDS011;12618;54.386;18.394;2022-08-26T04:38:08;91.85;;;15.38;;
24439;SDS011;12618;54.386;18.394;2022-08-26T04:40:42;102.90;;;13.40;;
24439;SDS011;12618;54.386;18.394;2022-08-26T04:43:13;144.02;;;15.40;;
24439;SDS011;12618;54.386;18.394;2022-08-26T04:45:44;39.25;;;12.55;;
24439;SDS011;12618;54.386;18.394;2022-08-26T04:48:15;138.82;;;15.85;;
24439;SDS011;12618;54.386;18.394;2022-08-26T04:50:45;84.57;;;13.53;;
24439;SDS011;12618;54.386;18.394;2022-08-26T04:53:17;90.55;;;13.80;;
24439;SDS011;12618;54.386;18.394;2022-08-26T04:55:47;139.28;;;15.48;;
24439;SDS011;12618;54.386;18.394;2022-08-26T04:58:19;64.47;;;14.87;;
24439;SDS011;12618;54.386;18.394;2022-08-26T05:00:51;122.22;;;15.60;;
24439;SDS011;12618;54.386;18.394;2022-08-26T05:03:22;56.37;;;14.20;;
24439;SDS011;12618;54.386;18.394;2022-08-26T05:05:53;72.78;;;15.63;;
24439;SDS011;12618;54.386;18.394;2022-08-26T05:08:23;91.53;;;16.30;;
24439;SDS011;12618;54.386;18.394;2022-08-26T05:10:54;77.50;;;17.15;;
24439;SDS011;12618;54.386;18.394;2022-08-26T05:13:26;220.45;;;21.95;;
24439;SDS011;12618;54.386;18.394;2022-08-26T05:16:00;57.20;;;17.17;;
24439;SDS011;12618;54.386;18.394;2022-08-26T05:18:29;236.52;;;21.00;;
24439;SDS011;12618;54.386;18.394;2022-08-26T05:21:00;189.13;;;21.35;;
24439;SDS011;12618;54.386;18.394;2022-08-26T05:23:33;204.05;;;22.50;;
24439;SDS011;12618;54.386;18.394;2022-08-26T05:26:05;248.32;;;23.47;;
24439;SDS011;12618;54.386;18.394;2022-08-26T05:28:36;127.05;;;19.30;;
24439;SDS011;12618;54.386;18.394;2022-08-26T05:31:14;165.32;;;18.92;;
24439;SDS011;12618;54.386;18.394;2022-08-26T05:33:45;90.12;;;18.95;;
24439;SDS011;12618;54.386;18.394;2022-08-26T05:36:17;94.42;;;18.80;;
24439;SDS011;12618;54.386;18.394;2022-08-26T05:38:48;118.25;;;18.52;;
24439;SDS011;12618;54.386;18.394;2022-08-26T05:41:20;127.78;;;19.55;;
24439;SDS011;12618;54.386;18.394;2022-08-26T05:46:23;103.02;;;20.62;;
24439;SDS011;12618;54.386;18.394;2022-08-26T05:48:54;95.75;;;20.30;;
24439;SDS011;12618;54.386;18.394;2022-08-26T05:51:24;47.93;;;19.70;;
24439;SDS011;12618;54.386;18.394;2022-08-26T05:53:55;89.50;;;21.00;;
24439;SDS011;12618;54.386;18.394;2022-08-26T05:56:25;87.80;;;20.20;;
24439;SDS011;12618;54.386;18.394;2022-08-26T05:58:56;107.90;;;20.27;;
24439;SDS011;12618;54.386;18.394;2022-08-26T06:01:27;132.45;;;21.93;;
24439;SDS011;12618;54.386;18.394;2022-08-26T06:03:58;58.63;;;17.42;;
24439;SDS011;12618;54.386;18.394;2022-08-26T06:06:30;57.98;;;17.82;;
24439;SDS011;12618;54.386;18.394;2022-08-26T06:09:03;90.65;;;18.62;;
24439;SDS011;12618;54.386;18.394;2022-08-26T06:11:33;83.60;;;17.73;;
24439;SDS011;12618;54.386;18.394;2022-08-26T06:14:04;74.47;;;25.32;;
24439;SDS011;12618;54.386;18.394;2022-08-26T06:16:38;140.60;;;22.27;;
24439;SDS011;12618;54.386;18.394;2022-08-26T06:19:09;53.42;;;17.75;;
24439;SDS011;12618;54.386;18.394;2022-08-26T06:21:40;88.50;;;24.23;;
24439;SDS011;12618;54.386;18.394;2022-08-26T06:24:12;62.25;;;25.27;;
24439;SDS011;12618;54.386;18.394;2022-08-26T06:27:02;36.10;;;21.45;;
24439;SDS011;12618;54.386;18.394;2022-08-26T06:29:33;66.05;;;19.45;;
24439;SDS011;12618;54.386;18.394;2022-08-26T06:32:07;70.32;;;17.98;;
24439;SDS011;12618;54.386;18.394;2022-08-26T06:34:37;42.50;;;18.50;;
24439;SDS011;12618;54.386;18.394;2022-08-26T06:37:08;52.35;;;20.80;;
24439;SDS011;12618;54.386;18.394;2022-08-26T06:39:38;35.73;;;20.00;;
24439;SDS011;12618;54.386;18.394;2022-08-26T06:42:09;26.15;;;16.70;;
24439;SDS011;12618;54.386;18.394;2022-08-26T06:44:39;45.90;;;18.55;;
24439;SDS011;12618;54.386;18.394;2022-08-26T06:47:10;23.95;;;17.12;;
24439;SDS011;12618;54.386;18.394;2022-08-26T06:49:41;33.58;;;17.57;;
24439;SDS011;12618;54.386;18.394;2022-08-26T06:52:11;30.02;;;19.32;;
24439;SDS011;12618;54.386;18.394;2022-08-26T06:54:42;27.90;;;17.48;;
24439;SDS011;12618;54.386;18.394;2022-08-26T06:57:12;25.30;;;17.12;;
24439;SDS011;12618;54.386;18.394;2022-08-26T06:59:43;27.05;;;16.23;;
24439;SDS011;12618;54.386;18.394;2022-08-26T07:02:13;30.00;;;16.90;;
24439;SDS011;12618;54.386;18.394;2022-08-26T07:04:44;34.05;;;16.82;;
24439;SDS011;12618;54.386;18.394;2022-08-26T07:07:14;29.12;;;16.70;;
24439;SDS011;12618;54.386;18.394;2022-08-26T07:09:48;30.15;;;18.00;;
24439;SDS011;12618;54.386;18.394;2022-08-26T07:12:18;35.25;;;17.98;;
24439;SDS011;12618;54.386;18.394;2022-08-26T07:14:49;28.80;;;17.20;;
24439;SDS011;12618;54.386;18.394;2022-08-26T07:17:20;31.68;;;17.45;;
24439;SDS011;12618;54.386;18.394;2022-08-26T07:19:50;25.88;;;16.25;;
24439;SDS011;12618;54.386;18.394;2022-08-26T07:22:21;24.05;;;15.72;;
24439;SDS011;12618;54.386;18.394;2022-08-26T07:24:51;27.65;;;16.50;;
24439;SDS011;12618;54.386;18.394;2022-08-26T07:27:21;28.85;;;16.80;;
24439;SDS011;12618;54.386;18.394;2022-08-26T07:29:54;30.02;;;16.55;;
24439;SDS011;12618;54.386;18.394;2022-08-26T07:32:25;28.80;;;16.37;;
24439;SDS011;12618;54.386;18.394;2022-08-26T07:34:58;30.12;;;16.57;;
24439;SDS011;12618;54.386;18.394;2022-08-26T07:37:28;26.70;;;15.72;;
24439;SDS011;12618;54.386;18.394;2022-08-26T07:39:59;31.00;;;15.95;;
24439;SDS011;12618;54.386;18.394;2022-08-26T07:42:29;28.02;;;14.65;;
24439;SDS011;12618;54.386;18.394;2022-08-26T07:45:00;31.55;;;13.65;;
24439;SDS011;12618;54.386;18.394;2022-08-26T07:47:30;35.92;;;15.43;;
24439;SDS011;12618;54.386;18.394;2022-08-26T07:50:01;25.10;;;13.55;;
24439;SDS011;12618;54.386;18.394;2022-08-26T07:52:31;22.87;;;12.82;;
24439;SDS011;12618;54.386;18.394;2022-08-26T07:55:03;33.38;;;14.70;;
24439;SDS011;12618;54.386;18.394;2022-08-26T07:57:34;23.98;;;12.70;;
24439;SDS011;12618;54.386;18.394;2022-08-26T08:00:05;24.37;;;11.97;;
24439;SDS011;12618;54.386;18.394;2022-08-26T08:02:37;27.70;;;11.67;;
24439;SDS011;12618;54.386;18.394;2022-08-26T08:05:08;19.77;;;10.30;;
24439;SDS011;12618;54.386;18.394;2022-08-26T08:07:39;23.75;;;10.85;;
24439;SDS011;12618;54.386;18.394;2022-08-26T08:10:11;26.70;;;12.13;;
24439;SDS011;12618;54.386;18.394;2022-08-26T08:12:42;24.10;;;10.55;;
24439;SDS011;12618;54.386;18.394;2022-08-26T08:15:13;19.98;;;9.98;;
24439;SDS011;12618;54.386;18.394;2022-08-26T08:17:43;29.50;;;11.00;;
24439;SDS011;12618;54.386;18.394;2022-08-26T08:20:14;24.02;;;10.70;;
24439;SDS011;12618;54.386;18.394;2022-08-26T08:22:44;19.60;;;10.13;;
24439;SDS011;12618;54.386;18.394;2022-08-26T08:25:15;28.00;;;10.90;;
24439;SDS011;12618;54.386;18.394;2022-08-26T08:27:45;21.48;;;10.20;;
24439;SDS011;12618;54.386;18.394;2022-08-26T08:30:18;30.10;;;11.03;;
24439;SDS011;12618;54.386;18.394;2022-08-26T08:32:50;24.02;;;9.73;;
24439;SDS011;12618;54.386;18.394;2022-08-26T08:35:21;27.42;;;10.90;;
24439;SDS011;12618;54.386;18.394;2022-08-26T08:37:52;22.77;;;9.65;;
24439;SDS011;12618;54.386;18.394;2022-08-26T08:40:26;25.12;;;10.08;;
24439;SDS011;12618;54.386;18.394;2022-08-26T08:43:00;22.80;;;10.38;;
24439;SDS011;12618;54.386;18.394;2022-08-26T08:45:36;26.37;;;10.70;;
24439;SDS011;12618;54.386;18.394;2022-08-26T08:51:04;26.37;;;11.30;;
24439;SDS011;12618;54.386;18.394;2022-08-26T08:53:36;26.15;;;12.30;;
24439;SDS011;12618;54.386;18.394;2022-08-26T08:59:30;21.75;;;10.85;;
24439;SDS011;12618;54.386;18.394;2022-08-26T09:07:58;30.75;;;9.18;;
24439;SDS011;12618;54.386;18.394;2022-08-26T09:10:29;23.95;;;9.13;;
24439;SDS011;12618;54.386;18.394;2022-08-26T09:13:13;23.57;;;8.08;;
24439;SDS011;12618;54.386;18.394;2022-08-26T09:21:23;19.40;;;8.00;;
24439;SDS011;12618;54.386;18.394;2022-08-26T09:23:55;17.57;;;7.35;;
24439;SDS011;12618;54.386;18.394;2022-08-26T09:26:41;21.07;;;7.35;;
24439;SDS011;12618;54.386;18.394;2022-08-26T09:29:03;15.05;;;6.67;;
24439;SDS011;12618;54.386;18.394;2022-08-26T09:31:37;21.62;;;6.90;;
24439;SDS011;12618;54.386;18.394;2022-08-26T09:34:16;18.80;;;6.33;;
24439;SDS011;12618;54.386;18.394;2022-08-26T09:36:58;21.27;;;6.40;;
24439;SDS011;12618;54.386;18.394;2022-08-26T09:39:30;20.35;;;6.25;;
24439;SDS011;12618;54.386;18.394;2022-08-26T09:47:28;13.60;;;5.10;;
24439;SDS011;12618;54.386;18.394;2022-08-26T09:50:09;21.90;;;6.67;;
24439;SDS011;12618;54.386;18.394;2022-08-26T09:52:42;17.12;;;5.75;;
24439;SDS011;12618;54.386;18.394;2022-08-26T09:55:14;13.85;;;5.65;;
24439;SDS011;12618;54.386;18.394;2022-08-26T09:57:48;16.97;;;5.75;;
24439;SDS011;12618;54.386;18.394;2022-08-26T10:00:26;15.00;;;5.70;;
24439;SDS011;12618;54.386;18.394;2022-08-26T10:03:06;12.98;;;5.22;;
24439;SDS011;12618;54.386;18.394;2022-08-26T10:05:42;16.80;;;5.12;;
24439;SDS011;12618;54.386;18.394;2022-08-26T10:08:32;12.63;;;4.60;;
24439;SDS011;12618;54.386;18.394;2022-08-26T10:11:06;18.17;;;4.83;;
24439;SDS011;12618;54.386;18.394;2022-08-26T10:13:42;12.30;;;4.17;;
24439;SDS011;12618;54.386;18.394;2022-08-26T10:16:18;14.00;;;4.35;;
24439;SDS011;12618;54.386;18.394;2022-08-26T10:18:55;12.70;;;4.45;;
24439;SDS011;12618;54.386;18.394;2022-08-26T10:21:43;9.73;;;4.08;;
24439;SDS011;12618;54.386;18.394;2022-08-26T10:24:27;15.48;;;3.90;;
24439;SDS011;12618;54.386;18.394;2022-08-26T10:26:57;10.72;;;3.45;;
24439;SDS011;12618;54.386;18.394;2022-08-26T10:29:35;13.10;;;4.00;;
24439;SDS011;12618;54.386;18.394;2022-08-26T10:32:11;10.93;;;3.85;;
24439;SDS011;12618;54.386;18.394;2022-08-26T10:34:47;10.55;;;3.90;;
24439;SDS011;12618;54.386;18.394;2022-08-26T10:37:18;11.08;;;3.80;;
24439;SDS011;12618;54.386;18.394;2022-08-26T10:40:04;8.53;;;3.65;;
24439;SDS011;12618;54.386;18.394;2022-08-26T10:42:55;10.13;;;3.87;;
24439;SDS011;12618;54.386;18.394;2022-08-26T10:45:31;15.90;;;4.03;;
24439;SDS011;12618;54.386;18.394;2022-08-26T10:48:05;11.50;;;3.70;;
24439;SDS011;12618;54.386;18.394;2022-08-26T10:50:45;11.63;;;3.70;;
24439;SDS011;12618;54.386;18.394;2022-08-26T10:53:27;14.87;;;3.62;;
24439;SDS011;12618;54.386;18.394;2022-08-26T11:02:01;33.02;;;6.08;;
24439;SDS011;12618;54.386;18.394;2022-08-26T11:04:55;8.87;;;3.70;;
24439;SDS011;12618;54.386;18.394;2022-08-26T11:07:32;7.83;;;3.70;;
24439;SDS011;12618;54.386;18.394;2022-08-26T11:21:40;12.93;;;4.33;;
24439;SDS011;12618;54.386;18.394;2022-08-26T11:27:50;17.25;;;4.80;;
24439;SDS011;12618;54.386;18.394;2022-08-26T11:30:06;13.98;;;4.00;;
24439;SDS011;12618;54.386;18.394;2022-08-26T11:32:48;13.03;;;3.87;;
24439;SDS011;12618;54.386;18.394;2022-08-26T11:38:02;12.45;;;3.20;;
24439;SDS011;12618;54.386;18.394;2022-08-26T11:40:44;10.82;;;3.67;;
24439;SDS011;12618;54.386;18.394;2022-08-26T11:43:19;13.68;;;3.45;;
24439;SDS011;12618;54.386;18.394;2022-08-26T11:46:03;27.10;;;4.78;;
24439;SDS011;12618;54.386;18.394;2022-08-26T11:48:38;12.20;;;3.62;;
24439;SDS011;12618;54.386;18.394;2022-08-26T11:51:12;7.55;;;3.20;;
24439;SDS011;12618;54.386;18.394;2022-08-26T11:53:55;10.25;;;3.45;;
24439;SDS011;12618;54.386;18.394;2022-08-26T11:56:26;8.18;;;3.12;;
24439;SDS011;12618;54.386;18.394;2022-08-26T11:59:02;8.18;;;2.90;;
24439;SDS011;12618;54.386;18.394;2022-08-26T12:01:37;7.35;;;3.00;;
24439;SDS011;12618;54.386;18.394;2022-08-26T12:04:11;8.93;;;3.40;;
24439;SDS011;12618;54.386;18.394;2022-08-26T12:06:50;8.18;;;3.35;;
24439;SDS011;12618;54.386;18.394;2022-08-26T12:09:35;13.05;;;3.60;;
24439;SDS011;12618;54.386;18.394;2022-08-26T12:12:09;7.08;;;3.65;;
24439;SDS011;12618;54.386;18.394;2022-08-26T12:14:45;7.53;;;3.52;;
24439;SDS011;12618;54.386;18.394;2022-08-26T12:17:16;9.95;;;3.20;;
24439;SDS011;12618;54.386;18.394;2022-08-26T12:19:49;9.68;;;3.92;;
24439;SDS011;12618;54.386;18.394;2022-08-26T12:24:59;6.17;;;3.08;;
24439;SDS011;12618;54.386;18.394;2022-08-26T12:27:36;12.28;;;3.45;;
24439;SDS011;12618;54.386;18.394;2022-08-26T12:30:21;8.15;;;3.40;;
24439;SDS011;12618;54.386;18.394;2022-08-26T12:32:51;10.23;;;3.83;;
24439;SDS011;12618;54.386;18.394;2022-08-26T12:35:24;8.10;;;3.33;;
24439;SDS011;12618;54.386;18.394;2022-08-26T12:40:41;8.50;;;3.08;;
24439;SDS011;12618;54.386;18.394;2022-08-26T12:43:17;70.80;;;9.35;;
24439;SDS011;12618;54.386;18.394;2022-08-26T12:45:55;8.70;;;3.33;;
24439;SDS011;12618;54.386;18.394;2022-08-26T12:48:30;7.78;;;3.30;;
24439;SDS011;12618;54.386;18.394;2022-08-26T12:51:05;10.03;;;3.30;;
24439;SDS011;12618;54.386;18.394;2022-08-26T12:53:40;11.50;;;3.67;;
24439;SDS011;12618;54.386;18.394;2022-08-26T12:59:26;21.15;;;4.70;;
24439;SDS011;12618;54.386;18.394;2022-08-26T13:01:42;7.80;;;3.25;;
24439;SDS011;12618;54.386;18.394;2022-08-26T13:07:21;10.82;;;3.65;;
24439;SDS011;12618;54.386;18.394;2022-08-26T13:09:56;15.68;;;3.75;;
24439;SDS011;12618;54.386;18.394;2022-08-26T13:12:29;8.43;;;3.75;;
24439;SDS011;12618;54.386;18.394;2022-08-26T13:15:03;11.95;;;3.70;;
24439;SDS011;12618;54.386;18.394;2022-08-26T13:17:34;13.70;;;3.70;;
24439;SDS011;12618;54.386;18.394;2022-08-26T13:20:07;24.45;;;5.42;;
24439;SDS011;12618;54.386;18.394;2022-08-26T13:22:38;7.92;;;3.52;;
24439;SDS011;12618;54.386;18.394;2022-08-26T13:25:09;8.65;;;3.30;;
24439;SDS011;12618;54.386;18.394;2022-08-26T13:27:40;13.00;;;3.67;;
24439;SDS011;12618;54.386;18.394;2022-08-26T13:30:12;7.10;;;3.67;;
24439;SDS011;12618;54.386;18.394;2022-08-26T13:32:44;48.98;;;7.50;;
24439;SDS011;12618;54.386;18.394;2022-08-26T13:35:17;27.37;;;4.85;;
24439;SDS011;12618;54.386;18.394;2022-08-26T13:37:47;11.35;;;3.90;;
24439;SDS011;12618;54.386;18.394;2022-08-26T13:40:19;7.95;;;3.50;;
24439;SDS011;12618;54.386;18.394;2022-08-26T13:42:51;7.87;;;3.50;;
24439;SDS011;12618;54.386;18.394;2022-08-26T13:45:22;8.65;;;3.95;;
24439;SDS011;12618;54.386;18.394;2022-08-26T13:47:53;7.90;;;3.33;;
24439;SDS011;12618;54.386;18.394;2022-08-26T13:50:24;13.08;;;4.20;;
24439;SDS011;12618;54.386;18.394;2022-08-26T13:52:55;8.30;;;3.80;;
24439;SDS011;12618;54.386;18.394;2022-08-26T13:55:26;8.98;;;3.50;;
24439;SDS011;12618;54.386;18.394;2022-08-26T13:57:58;11.93;;;4.28;;
24439;SDS011;12618;54.386;18.394;2022-08-26T14:00:32;8.95;;;3.75;;
24439;SDS011;12618;54.386;18.394;2022-08-26T14:03:04;8.23;;;3.52;;
24439;SDS011;12618;54.386;18.394;2022-08-26T14:05:36;5.83;;;3.50;;
24439;SDS011;12618;54.386;18.394;2022-08-26T14:08:09;8.58;;;3.83;;
24439;SDS011;12618;54.386;18.394;2022-08-26T14:10:41;9.78;;;3.50;;
24439;SDS011;12618;54.386;18.394;2022-08-26T14:13:12;15.68;;;3.85;;
24439;SDS011;12618;54.386;18.394;2022-08-26T14:15:44;10.38;;;3.80;;
24439;SDS011;12618;54.386;18.394;2022-08-26T14:18:20;10.25;;;3.72;;
24439;SDS011;12618;54.386;18.394;2022-08-26T14:20:53;14.03;;;4.00;;
24439;SDS011;12618;54.386;18.394;2022-08-26T14:23:27;7.62;;;3.75;;
24439;SDS011;12618;54.386;18.394;2022-08-26T14:25:57;8.33;;;3.98;;
24439;SDS011;12618;54.386;18.394;2022-08-26T14:28:29;8.08;;;3.90;;
24439;SDS011;12618;54.386;18.394;2022-08-26T14:31:00;6.90;;;3.45;;
24439;SDS011;12618;54.386;18.394;2022-08-26T14:33:33;10.13;;;4.05;;
24439;SDS011;12618;54.386;18.394;2022-08-26T14:36:07;14.80;;;4.17;;
24439;SDS011;12618;54.386;18.394;2022-08-26T14:38:58;8.63;;;4.12;;
24439;SDS011;12618;54.386;18.394;2022-08-26T14:41:43;7.72;;;3.98;;
24439;SDS011;12618;54.386;18.394;2022-08-26T14:44:16;8.35;;;3.83;;
24439;SDS011;12618;54.386;18.394;2022-08-26T14:46:49;11.70;;;4.17;;
24439;SDS011;12618;54.386;18.394;2022-08-26T14:49:22;9.08;;;3.90;;
24439;SDS011;12618;54.386;18.394;2022-08-26T14:51:53;13.85;;;4.33;;
24439;SDS011;12618;54.386;18.394;2022-08-26T14:54:25;8.15;;;4.35;;
24439;SDS011;12618;54.386;18.394;2022-08-26T14:57:07;8.58;;;4.47;;
24439;SDS011;12618;54.386;18.394;2022-08-26T14:59:44;14.40;;;4.78;;
24439;SDS011;12618;54.386;18.394;2022-08-26T15:02:16;6.78;;;4.20;;
24439;SDS011;12618;54.386;18.394;2022-08-26T15:04:47;15.90;;;4.87;;
24439;SDS011;12618;54.386;18.394;2022-08-26T15:07:20;9.35;;;4.53;;
24439;SDS011;12618;54.386;18.394;2022-08-26T15:09:50;12.78;;;4.25;;
24439;SDS011;12618;54.386;18.394;2022-08-26T15:12:21;10.50;;;4.22;;
24439;SDS011;12618;54.386;18.394;2022-08-26T15:14:52;8.40;;;3.77;;
24439;SDS011;12618;54.386;18.394;2022-08-26T15:17:23;7.28;;;3.62;;
24439;SDS011;12618;54.386;18.394;2022-08-26T15:19:54;5.92;;;3.52;;
24439;SDS011;12618;54.386;18.394;2022-08-26T15:22:24;12.20;;;4.12;;
24439;SDS011;12618;54.386;18.394;2022-08-26T15:24:56;10.15;;;4.10;;
24439;SDS011;12618;54.386;18.394;2022-08-26T15:27:27;6.35;;;3.70;;
24439;SDS011;12618;54.386;18.394;2022-08-26T15:29:59;6.65;;;3.55;;
24439;SDS011;12618;54.386;18.394;2022-08-26T15:35:02;6.55;;;3.77;;
24439;SDS011;12618;54.386;18.394;2022-08-26T15:37:33;9.13;;;3.70;;
24439;SDS011;12618;54.386;18.394;2022-08-26T15:40:05;10.18;;;4.30;;
24439;SDS011;12618;54.386;18.394;2022-08-26T15:42:38;10.63;;;4.87;;
24439;SDS011;12618;54.386;18.394;2022-08-26T15:45:09;12.15;;;5.40;;
24439;SDS011;12618;54.386;18.394;2022-08-26T15:47:40;10.10;;;4.95;;
24439;SDS011;12618;54.386;18.394;2022-08-26T15:50:11;9.13;;;5.12;;
24439;SDS011;12618;54.386;18.394;2022-08-26T15:52:42;11.83;;;4.95;;
24439;SDS011;12618;54.386;18.394;2022-08-26T15:55:13;17.35;;;5.42;;